• Join FlightAware (Why Join?)
  • Login
  • US Flag 
03:26PM EDT


 

Airport Tracker/Info


-or-


 

Live Flight TrackerFlight Track Log ✈ CES2227 ✈ 01-Sep-2013 ✈ ZSPD / PVG - ZUJZ / JZH

Flight Track Log - Related Links

Times and Time Zones

All times are in EDT time to prevent confusion due to time zone crossing. See the CES2227 flight status page for this flight to view local times or setup timezone preferences in your user account.

Time Position Orientation Groundspeed Altitude Reporting Facility
EDT Latitude Longitude Course Direction KTS MPH feet Rate Location/Type
01:54AM 31.1700 121.7830 343° North 166 191 1,500  Level FlightAware
01:54AM 31.1850 121.7780 344° North 166 191 1,500 2,040 Level FlightAware
01:55AM 31.2080 121.7700 343° North 174 200 3,400 1,740 Climbing FlightAware
01:56AM 31.2500 121.7560 344° North 203 234 3,800 1,200 Climbing FlightAware
01:56AM 31.2580 121.7520 337° Northwest 252 290 4,500 3,960 Climbing FlightAware
01:56AM 31.2930 121.7390 342° North 254 292 6,000 3,000 Climbing FlightAware
01:57AM 31.3200 121.7280 341° North 260 299 7,100 3,000 Climbing FlightAware
01:57AM 31.3440 121.7180 340° North 275 316 8,000 2,880 Climbing FlightAware
01:57AM 31.3550 121.7130 339° North 273 314 8,400 2,280 Climbing FlightAware
01:57AM 31.3880 121.7010 343° North 285 328 9,400 2,340 Climbing FlightAware
01:58AM 31.4330 121.6850 343° North 302 348 10,800 1,800 Climbing FlightAware
01:59AM 31.4840 121.6670 343° North 324 373 11,600 1,320 Climbing FlightAware
01:59AM 31.5350 121.6430 338° Northwest 354 407 12,400 1,920 Climbing FlightAware
02:00AM 31.5810 121.5880 314° West 353 406 13,900 2,400 Climbing FlightAware
02:00AM 31.6270 121.5360 316° Northwest 359 413 15,500 2,220 Climbing FlightAware
02:01AM 31.6660 121.4900 315° West 366 421 16,600 1,860 Climbing FlightAware
02:02AM 31.7170 121.4300 315° West 373 429 17,900 1,680 Climbing FlightAware
02:02AM 31.7690 121.3680 315° West 384 442 19,000 1,380 Climbing FlightAware
02:03AM 31.8140 121.3150 315° West 381 438 19,700 540 Climbing FlightAware
02:04AM 31.8650 121.2550 315° West 384 442 19,700 360 Level FlightAware
02:04AM 31.9160 121.1950 315° West 383 441 20,200 1,800 Climbing FlightAware
02:05AM 31.9520 121.1520 315° West 365 420 21,800 2,580 Climbing FlightAware
02:05AM 31.9930 121.1030 315° West 360 414 23,000 1,800 Climbing FlightAware
02:06AM 32.0410 121.0460 315° West 365 420 24,100 1,560 Climbing FlightAware
02:07AM 32.0690 121.0120 314° West 368 423 24,800 1,680 Climbing FlightAware
02:07AM 32.0930 120.9810 312° West 362 417 25,400 2,040 Climbing FlightAware
02:07AM 32.1040 120.9550 297° West 355 409 25,900 2,160 Climbing FlightAware
02:08AM 32.1220 120.8910 288° West 352 405 27,200 2,040 Climbing FlightAware
02:08AM 32.1400 120.8280 289° West 350 403 28,300 1,680 Climbing FlightAware
02:09AM 32.1540 120.7800 289° West 350 403 29,200 1,620 Climbing FlightAware
02:09AM 32.1690 120.7100 284° West 353 406 30,100 780 Climbing FlightAware
02:10AM 32.1760 120.6430 277° West 378 435 30,100  Level FlightAware
02:11AM 32.1860 120.5310 276° West 402 463 30,100  Level FlightAware
02:11AM 32.1930 120.4660 277° West 401 461 30,100  Level FlightAware
02:12AM 32.2000 120.3810 276° West 399 459 30,100  Level FlightAware
02:13AM 32.2100 120.2830 277° West 399 459 30,100  Level FlightAware
02:13AM 32.2170 120.2200 277° West 399 459 30,100 660 Level FlightAware
02:14AM 32.2230 120.0990 273° West 403 464 31,000 1,020 Climbing FlightAware
02:15AM 32.2290 120.0250 275° West 414 476 31,500 900 Climbing FlightAware
02:15AM 32.2350 119.9400 275° West 422 486 32,100 960 Climbing FlightAware
02:16AM 32.2400 119.8690 275° West 422 486 32,700 1,500 Climbing FlightAware
02:16AM 32.2380 119.7820 268° West 418 481 33,900 1,080 Climbing FlightAware
02:17AM 32.2240 119.6970 259° West 415 478 34,100 120 Climbing FlightAware
02:18AM 32.2020 119.6110 253° West 419 482 34,100  Level FlightAware
02:18AM 32.1810 119.5320 253° West 415 478 34,100 300 Level FlightAware
02:19AM 32.1560 119.4370 253° West 419 482 34,500 960 Climbing FlightAware
02:20AM 32.1370 119.3650 253° West 416 479 35,400 660 Climbing FlightAware
02:20AM 32.1190 119.2890 254° West 416 479 35,400 480 Level FlightAware
02:21AM 32.0890 119.1840 251° West 417 480 36,100 540 Climbing FlightAware
02:22AM 32.0710 119.1140 253° West 416 479 36,100  Level FlightAware
02:22AM 32.0490 119.0300 253° West 417 480 36,100  Level FlightAware
02:23AM 32.0290 118.9540 253° West 417 480 36,100  Level FlightAware
02:24AM 32.0130 118.8910 253° West 417 480 36,100  Level FlightAware
02:24AM 31.9950 118.8230 253° West 417 480 36,100  Level FlightAware
02:25AM 31.9760 118.7500 253° West 417 480 36,100  Level FlightAware
02:25AM 31.9600 118.6880 253° West 417 480 36,100  Level FlightAware
02:26AM 31.9420 118.6190 253° West 417 480 36,100  Level FlightAware
02:27AM 31.9190 118.5310 253° West 417 480 36,100  Level FlightAware
02:27AM 31.9020 118.4620 254° West 417 480 36,100  Level FlightAware
02:28AM 31.8840 118.3940 253° West 417 480 36,100  Level FlightAware
02:29AM 31.8630 118.3130 253° West 417 480 36,100  Level FlightAware
02:29AM 31.8450 118.2460 252° West 417 480 36,100  Level FlightAware
02:30AM 31.8290 118.1810 254° West 417 480 36,100  Level FlightAware
02:31AM 31.8100 118.1080 253° West 417 480 36,100  Level FlightAware
02:31AM 31.7900 118.0340 252° West 417 480 36,100  Level FlightAware
02:34AM 31.8215 117.7946 279° West  Level Estimated
02:35AM 31.8356 117.6857 279° West  Level Estimated
02:36AM 31.8497 117.5768 279° West  Level Estimated
02:37AM 31.8636 117.4679 279° West  Level Estimated
02:38AM 31.8775 117.3589 279° West  Level Estimated
02:39AM 31.8913 117.2499 278° West  Level Estimated
02:40AM 31.9050 117.1408 278° West  Level Estimated
02:41AM 31.9186 117.0318 278° West  Level Estimated
02:42AM 31.9321 116.9227 278° West  Level Estimated
02:43AM 31.9455 116.8135 278° West  Level Estimated
02:44AM 31.9588 116.7044 278° West  Level Estimated
02:45AM 31.9720 116.5952 278° West  Level Estimated
02:46AM 31.9851 116.4859 278° West  Level Estimated
02:47AM 31.9982 116.3767 278° West  Level Estimated
02:48AM 32.0111 116.2674 278° West  Level Estimated
02:49AM 32.0240 116.1581 278° West  Level Estimated
02:50AM 32.0367 116.0487 278° West  Level Estimated
02:51AM 32.0494 115.9393 278° West  Level Estimated
02:52AM 32.0619 115.8299 278° West  Level Estimated
02:53AM 32.0744 115.7204 278° West  Level Estimated
02:53AM 33.0390 115.5800 278° West 389 448 36,100  Level FlightAware
02:54AM 33.1190 115.4710 311° West 388 447 36,100  Level FlightAware
02:55AM 33.1610 115.4130 311° West 388 447 36,100  Level FlightAware
02:55AM 33.1600 115.4150 121° Southeast 389 448 36,100  Level FlightAware
02:56AM 33.1950 115.3660 310° West 389 448 36,100  Level FlightAware
02:56AM 33.2310 115.3170 311° West 389 448 36,100  Level FlightAware
02:57AM 33.2670 115.2670 311° West 389 448 36,100  Level FlightAware
02:58AM 33.3040 115.2160 311° West 389 448 36,100  Level FlightAware
02:58AM 33.3400 115.1660 311° West 389 448 36,100  Level FlightAware
02:59AM 33.4630 114.9980 311° West 391 450 36,100  Level FlightAware
02:59AM 33.5050 114.9400 311° West 390 449 36,100  Level FlightAware
03:00AM 33.5440 114.8850 310° West 390 449 36,100  Level FlightAware
03:01AM 33.5800 114.8330 310° West 390 449 36,100  Level FlightAware
03:01AM 33.6150 114.7830 310° West 390 449 36,100  Level FlightAware
03:02AM 33.6640 114.7150 311° West 389 448 36,100  Level FlightAware
03:02AM 33.6990 114.6550 305° West 389 448 36,100  Level FlightAware
03:03AM 33.6640 114.7150 125° Southeast 392 451 36,100  Level FlightAware
03:04AM 33.7490 114.4720 293° West 392 451 36,100  Level FlightAware
03:04AM 33.7680 114.4020 288° West 392 451 36,100  Level FlightAware
03:05AM 33.8020 114.2720 288° West 391 450 36,100  Level FlightAware
03:06AM 33.8220 114.1920 287° West 391 450 36,100  Level FlightAware
03:07AM 33.8150 114.2210 106° East 391 450 36,100  Level FlightAware
03:07AM 33.8350 114.1430 287° West 391 450 36,100  Level FlightAware
03:08AM 33.8510 114.0790 287° West 391 450 36,100  Level FlightAware
03:09AM 33.8670 114.0130 286° West 391 450 36,100  Level FlightAware
03:09AM 33.8890 113.9300 288° West 391 450 36,100  Level FlightAware
03:10AM 33.9050 113.8650 287° West 391 450 36,100  Level FlightAware
03:11AM 33.9240 113.7920 287° West 391 450 36,100  Level FlightAware
03:11AM 33.9410 113.7250 287° West 391 450 36,100  Level FlightAware
03:12AM 33.9580 113.6560 287° West 391 450 36,100  Level FlightAware
03:13AM 33.9740 113.5920 287° West 391 450 36,100  Level FlightAware
03:13AM 33.9910 113.5240 287° West 391 450 36,100  Level FlightAware
03:14AM 34.0090 113.4550 287° West 391 450 36,100  Level FlightAware
03:14AM 34.0250 113.3930 287° West 391 450 36,100  Level FlightAware
03:15AM 34.0420 113.3260 287° West 391 450 36,100  Level FlightAware
03:16AM 34.0580 113.2620 287° West 391 450 36,100 -240 Level FlightAware
03:18AM 34.0407 113.0617 264° West  Level Estimated
03:19AM 34.0309 112.9494 264° West  Level Estimated
03:20AM 34.0210 112.8371 264° West  Level Estimated
03:21AM 34.0110 112.7248 264° West  Level Estimated
03:22AM 34.0008 112.6126 264° West  Level Estimated
03:23AM 33.9906 112.5004 264° West  Level Estimated
03:24AM 33.9803 112.3882 264° West  Level Estimated
03:25AM 33.9698 112.2761 264° West  Level Estimated
03:26AM 33.9593 112.1640 264° West  Level Estimated
03:27AM 33.9487 112.0519 264° West  Level Estimated
03:28AM 33.9379 111.9398 263° West  Level Estimated
03:29AM 33.9271 111.8278 263° West  Level Estimated
03:30AM 33.9161 111.7158 263° West  Level Estimated
03:31AM 33.9051 111.6038 263° West  Level Estimated
03:32AM 33.8940 111.4919 263° West  Level Estimated
03:33AM 33.8827 111.3800 263° West  Level Estimated
03:34AM 33.8714 111.2681 263° West  Level Estimated
03:35AM 33.8599 111.1563 263° West  Level Estimated
03:36AM 33.8484 111.0444 263° West  Level Estimated
03:37AM 33.8367 110.9326 263° West  Level Estimated
03:38AM 33.8250 110.8209 263° West  Level Estimated
03:39AM 33.8131 110.7092 263° West  Level Estimated
03:40AM 33.8012 110.5975 263° West  Level Estimated
03:41AM 33.7891 110.4858 263° West  Level Estimated
03:42AM 33.7770 110.3742 263° West  Level Estimated
03:43AM 33.7647 110.2625 263° West  Level Estimated
03:44AM 33.7524 110.1510 262° West  Level Estimated
03:45AM 33.7399 110.0394 262° West  Level Estimated
03:46AM 33.7273 109.9279 262° West  Level Estimated
03:47AM 33.7147 109.8164 262° West  Level Estimated
03:48AM 33.7019 109.7050 262° West  Level Estimated
03:49AM 33.6891 109.5936 262° West  Level Estimated
03:50AM 33.6761 109.4822 262° West  Level Estimated
03:51AM 33.6630 109.3709 262° West  Level Estimated
03:52AM 33.6499 109.2596 262° West  Level Estimated
03:53AM 33.6366 109.1483 262° West  Level Estimated
03:54AM 33.6233 109.0370 262° West  Level Estimated
03:55AM 33.6098 108.9258 262° West  Level Estimated
03:56AM 33.5963 108.8147 262° West  Level Estimated
03:57AM 33.5826 108.7035 262° West  Level Estimated
03:58AM 33.5689 108.5924 262° West  Level Estimated
03:59AM 33.5550 108.4814 262° West  Level Estimated
04:00AM 33.5411 108.3703 261° West  Level Estimated
04:01AM 33.5270 108.2593 261° West  Level Estimated
04:02AM 33.5129 108.1484 261° West  Level Estimated
04:03AM 33.4986 108.0375 261° West  Level Estimated
04:04AM 33.4843 107.9266 261° West  Level Estimated
04:05AM 33.4698 107.8157 261° West  Level Estimated
04:06AM 33.4553 107.7049 261° West  Level Estimated
04:07AM 33.4407 107.5941 261° West  Level Estimated
04:08AM 33.4259 107.4834 261° West  Level Estimated
04:09AM 33.4111 107.3727 261° West  Level Estimated
04:10AM 33.3961 107.2620 261° West  Level Estimated
04:11AM 33.3811 107.1514 261° West  Level Estimated
04:12AM 33.3660 107.0408 261° West  Level Estimated
04:13AM 33.3507 106.9303 261° West  Level Estimated
04:14AM 33.3354 106.8198 261° West  Level Estimated
04:15AM 33.3200 106.7093 261° West  Level Estimated
04:16AM 33.3044 106.5989 260° West  Level Estimated
04:17AM 33.2888 106.4885 260° West  Level Estimated
04:18AM 33.2731 106.3781 260° West  Level Estimated
04:19AM 33.2573 106.2678 260° West  Level Estimated
04:20AM 33.2414 106.1576 260° West  Level Estimated
04:21AM 33.2254 106.0473 260° West  Level Estimated
04:22AM 33.2093 105.9371 260° West  Level Estimated
04:22AM 32.4080 104.5020 260° West 396 456 23,600  Level FlightAware
04:22AM 32.4090 104.4290 271° West 395 455 23,600  Level FlightAware
04:23AM 32.4090 104.3720 270° West 395 455 23,600  Level FlightAware
04:23AM 32.4140 104.2770 274° West 396 456 23,600  Level FlightAware
04:24AM 32.4360 104.2040 290° West 395 455 23,600  Level FlightAware
04:25AM 32.4720 104.1460 306° West 395 455 23,600  Level FlightAware
04:25AM 32.5180 104.0980 319° Northwest 394 453 23,600  Level FlightAware
04:25AM 32.5500 104.0870 344° North 392 451 23,600  Level FlightAware
04:26AM 32.6020 104.0620 338° Northwest 392 451 23,600  Level FlightAware
04:27AM 32.6610 104.0340 338° Northwest 392 451 23,600  Level FlightAware
04:27AM 32.7150 104.0070 337° Northwest 392 451 23,600  Level FlightAware
04:28AM 32.7710 103.9810 339° North 392 451 23,600  Level FlightAware
04:29AM 32.8280 103.9530 338° Northwest 392 451 23,600  Level FlightAware
04:29AM 32.8800 103.9280 338° Northwest 392 451 23,600  Level FlightAware
04:32AM 32.8570 103.6830 264° West  Level Estimated
04:33AM 32.8570 103.6830 North  Level Estimated
04:34AM 32.8570 103.6830 North  Level Estimated
04:35AM 32.8570 103.6830 North  Level Estimated
04:36AM 32.8570 103.6830 North  Level Estimated
04:37AM 32.8570 103.6830 North  Level Estimated
04:38AM 32.8570 103.6830 North  Level Estimated
04:39AM 32.8570 103.6830 North  Level Estimated
04:40AM 32.8570 103.6830 North  Level Estimated
04:41AM 32.8570 103.6830 North  Level Estimated
04:42AM 32.8570 103.6830 North  Level Estimated
04:43AM 32.8570 103.6830 North  Level Estimated
04:44AM 32.8570 103.6830 North  Level Estimated
04:45AM 32.8570 103.6830 North  Level Estimated
04:46AM 32.8570 103.6830 North  Level Estimated